Time;durP1;ratioP1;P1;durP2;ratioP2;P2;SDS_P1;SDS_P2;PMS_P1;PMS_P2;Temp;Humidity;BMP_temperature;BMP_pressure;BME280_temperature;BME280_humidity;BME280_pressure;Samples;Min_cycle;Max_cycle;Signal;HPM_P1;HPM_P2
2021/07/15 00:00:55;;;;;;;11.57;10.60;;;23.40;74.10;;;;;;5099990;28;20703;-61
2021/07/15 00:03:29;;;;;;;11.23;10.30;;;23.40;74.30;;;;;;5108231;28;20231;-60
2021/07/15 00:05:58;;;;;;;11.10;10.20;;;23.40;74.30;;;;;;5093551;28;20216;-60
2021/07/15 00:08:27;;;;;;;10.80;9.90;;;23.30;74.20;;;;;;5095220;28;20235;-60
2021/07/15 00:11:06;;;;;;;9.90;9.10;;;23.30;74.30;;;;;;5100484;28;20219;-61
2021/07/15 00:13:39;;;;;;;10.10;9.23;;;23.30;74.20;;;;;;5103899;28;20201;-61
2021/07/15 00:16:14;;;;;;;9.87;9.07;;;23.30;74.20;;;;;;5100154;28;20205;-61
2021/07/15 00:18:47;;;;;;;9.37;8.67;;;23.30;74.20;;;;;;5097660;28;20195;-60
2021/07/15 00:21:20;;;;;;;9.77;8.83;;;23.30;74.00;;;;;;5107052;28;20208;-61
2021/07/15 00:24:02;;;;;;;10.17;9.27;;;23.40;74.00;;;;;;5100054;28;20281;-61
2021/07/15 00:26:52;;;;;;;10.10;9.17;;;23.30;74.00;;;;;;5096191;28;20201;-61
2021/07/15 00:29:27;;;;;;;10.17;9.30;;;23.30;74.10;;;;;;5102287;28;20203;-61
2021/07/15 00:31:56;;;;;;;9.80;8.97;;;23.30;74.10;;;;;;5097722;28;20651;-61
2021/07/15 00:34:25;;;;;;;10.03;9.20;;;23.30;74.00;;;;;;5100632;28;20207;-61
2021/07/15 00:36:56;;;;;;;9.60;8.77;;;23.40;74.00;;;;;;5102087;28;20526;-61
2021/07/15 00:39:43;;;;;;;10.17;9.27;;;23.30;73.90;;;;;;5102776;28;20279;-61
2021/07/15 00:42:15;;;;;;;10.33;9.53;;;23.30;74.00;;;;;;5104549;28;20196;-61
2021/07/15 00:44:47;;;;;;;10.87;9.90;;;23.30;74.10;;;;;;5102831;28;20208;-61
2021/07/15 00:47:18;;;;;;;10.87;9.97;;;23.30;74.10;;;;;;5104762;28;20193;-61
2021/07/15 00:49:50;;;;;;;11.30;10.30;;;23.30;74.20;;;;;;5091189;28;20197;-61
2021/07/15 00:52:18;;;;;;;12.17;11.00;;;23.30;74.20;;;;;;5097368;28;20212;-61
2021/07/15 00:54:54;;;;;;;11.33;10.33;;;23.30;74.30;;;;;;5096674;28;20195;-61
2021/07/15 00:57:38;;;;;;;10.43;9.53;;;23.30;74.20;;;;;;5093652;28;20197;-61
2021/07/15 01:00:09;;;;;;;10.47;9.57;;;23.30;74.00;;;;;;5091575;28;20197;-61
2021/07/15 01:02:41;;;;;;;10.43;9.43;;;23.30;74.60;;;;;;5104694;28;20537;-61
2021/07/15 01:05:47;;;;;;;10.30;9.47;;;23.30;74.00;;;;;;5092709;28;20192;-61
2021/07/15 01:08:16;;;;;;;10.60;9.70;;;23.30;74.20;;;;;;5120298;27;20702;-61
2021/07/15 01:12:08;;;;;;;10.17;9.30;;;23.30;74.20;;;;;;5101029;28;20258;-61
2021/07/15 01:15:11;;;;;;;10.87;9.87;;;23.30;74.20;;;;;;5036878;28;20216;-60
2021/07/15 01:18:04;;;;;;;9.53;8.63;;;23.30;74.00;;;;;;5060740;28;20291;-61
2021/07/15 01:21:19;;;;;;;9.93;9.03;;;23.30;74.30;;;;;;5061068;28;20232;-61
2021/07/15 01:24:26;;;;;;;9.30;8.60;;;23.30;74.60;;;;;;5098366;28;20199;-61
2021/07/15 01:27:40;;;;;;;9.13;8.30;;;23.30;74.40;;;;;;5102556;28;20212;-61
2021/07/15 01:30:47;;;;;;;8.20;7.47;;;23.30;74.20;;;;;;5101421;28;20641;-61
2021/07/15 01:33:31;;;;;;;8.60;7.90;;;23.30;74.20;;;;;;5066022;28;20219;-61
2021/07/15 01:36:08;;;;;;;9.00;8.20;;;23.30;74.00;;;;;;5098889;28;20196;-61
2021/07/15 01:39:05;;;;;;;8.47;7.80;;;23.30;74.10;;;;;;5107885;28;20253;-61
2021/07/15 01:41:51;;;;;;;9.53;8.63;;;23.30;74.00;;;;;;5082952;28;20213;-61
2021/07/15 01:44:27;;;;;;;8.60;7.80;;;23.30;74.00;;;;;;5102779;28;20338;-61
2021/07/15 01:47:08;;;;;;;9.03;8.13;;;23.30;74.00;;;;;;5104888;28;20725;-61
2021/07/15 01:49:41;;;;;;;9.87;8.97;;;23.30;74.10;;;;;;5110776;28;20204;-61
2021/07/15 01:52:14;;;;;;;8.87;8.17;;;23.30;74.20;;;;;;5102290;28;20289;-60
2021/07/15 01:54:51;;;;;;;8.50;7.70;;;23.30;74.10;;;;;;5098551;28;20568;-61
2021/07/15 01:57:25;;;;;;;9.00;8.20;;;23.30;74.00;;;;;;5097640;28;20197;-61
2021/07/15 01:59:57;;;;;;;10.10;9.20;;;23.30;73.90;;;;;;5109088;28;20202;-61
2021/07/15 02:02:27;;;;;;;10.07;9.27;;;23.30;73.90;;;;;;5104654;28;20231;-61
2021/07/15 02:05:04;;;;;;;10.37;9.40;;;23.30;73.90;;;;;;5106510;28;20731;-61
2021/07/15 02:07:39;;;;;;;10.80;9.90;;;23.30;74.00;;;;;;5098752;28;20318;-61
2021/07/15 02:10:26;;;;;;;10.80;9.80;;;23.30;74.10;;;;;;5103251;28;20232;-61
2021/07/15 02:12:57;;;;;;;9.77;8.97;;;23.30;74.20;;;;;;5108880;28;20198;-61
2021/07/15 02:15:29;;;;;;;10.37;9.50;;;23.20;74.10;;;;;;5106720;28;20625;-60
2021/07/15 02:18:04;;;;;;;11.30;10.37;;;23.30;74.20;;;;;;5105070;28;20624;-61
2021/07/15 02:20:35;;;;;;;10.17;9.27;;;23.20;74.10;;;;;;5107209;28;20681;-60
2021/07/15 02:23:08;;;;;;;11.30;10.33;;;23.20;74.10;;;;;;5110972;28;20192;-60
2021/07/15 02:25:41;;;;;;;9.87;8.93;;;23.20;74.10;;;;;;5104980;28;20193;-60
2021/07/15 02:28:17;;;;;;;10.77;9.83;;;23.20;74.40;;;;;;5111098;28;20201;-60
2021/07/15 02:30:48;;;;;;;9.87;9.07;;;23.20;74.40;;;;;;5095688;28;20233;-60
2021/07/15 02:33:59;;;;;;;10.33;9.43;;;23.20;74.50;;;;;;5106182;28;20569;-60
2021/07/15 02:36:32;;;;;;;9.23;8.50;;;23.10;74.60;;;;;;5108726;28;20188;-60
2021/07/15 02:39:24;;;;;;;10.60;9.60;;;23.10;74.40;;;;;;5103173;28;20201;-61
2021/07/15 02:42:00;;;;;;;10.20;9.30;;;23.10;74.40;;;;;;5127652;27;20291;-60
2021/07/15 02:44:46;;;;;;;9.43;8.53;;;23.10;74.30;;;;;;5103718;28;20224;-61
2021/07/15 02:47:17;;;;;;;8.60;7.90;;;23.10;74.40;;;;;;5109036;28;20200;-61
2021/07/15 02:49:45;;;;;;;8.83;8.10;;;23.10;74.30;;;;;;5101650;28;20598;-60
2021/07/15 02:52:17;;;;;;;9.30;8.40;;;23.10;74.10;;;;;;5109987;28;20228;-60
2021/07/15 02:54:49;;;;;;;9.07;8.30;;;23.10;74.10;;;;;;5104650;28;20527;-61
2021/07/15 02:57:35;;;;;;;8.57;7.80;;;23.10;73.90;;;;;;5109816;28;20196;-61
2021/07/15 03:00:24;;;;;;;8.47;7.77;;;23.20;73.90;;;;;;5102559;28;20196;-61
2021/07/15 03:03:15;;;;;;;8.40;7.60;;;23.20;73.90;;;;;;5100604;28;20200;-60
2021/07/15 03:06:16;;;;;;;7.90;7.27;;;23.20;73.80;;;;;;5104818;28;20212;-61
2021/07/15 03:08:58;;;;;;;9.03;8.13;;;23.20;73.70;;;;;;5060210;28;20194;-61
2021/07/15 03:11:48;;;;;;;8.53;7.83;;;23.20;73.70;;;;;;5058610;28;20222;-61
2021/07/15 03:14:20;;;;;;;8.60;7.90;;;23.10;73.70;;;;;;5066754;28;20636;-61
2021/07/15 03:16:49;;;;;;;8.90;8.20;;;23.10;73.90;;;;;;5067426;28;20193;-60
2021/07/15 03:19:25;;;;;;;9.60;8.70;;;23.10;73.90;;;;;;5062460;28;20281;-61
2021/07/15 03:22:01;;;;;;;9.10;8.30;;;23.10;74.10;;;;;;5051639;28;20201;-60
2021/07/15 03:24:31;;;;;;;9.37;8.57;;;23.10;74.10;;;;;;5059575;28;20204;-60
2021/07/15 03:27:04;;;;;;;10.33;9.43;;;23.10;74.10;;;;;;5066183;28;20514;-61
2021/07/15 03:29:36;;;;;;;10.40;9.50;;;23.10;74.10;;;;;;5053140;28;20225;-60
2021/07/15 03:32:09;;;;;;;10.53;9.53;;;23.10;74.10;;;;;;5062986;28;20249;-61
2021/07/15 03:35:03;;;;;;;10.60;9.60;;;23.10;74.00;;;;;;5063524;28;20615;-60
2021/07/15 03:37:43;;;;;;;11.33;10.23;;;23.10;74.10;;;;;;5059188;28;20203;-61
2021/07/15 03:40:13;;;;;;;11.17;10.17;;;23.10;73.90;;;;;;5060724;28;20202;-61
2021/07/15 03:43:03;;;;;;;11.10;10.10;;;23.10;73.80;;;;;;5064822;28;20240;-60
2021/07/15 03:45:34;;;;;;;12.20;11.10;;;23.10;73.70;;;;;;5068332;28;20275;-61
2021/07/15 03:48:17;;;;;;;11.97;10.87;;;23.10;73.70;;;;;;5055952;28;20276;-60
2021/07/15 03:50:49;;;;;;;12.23;10.97;;;23.10;73.80;;;;;;5050388;28;20194;-61
2021/07/15 03:53:21;;;;;;;12.70;11.50;;;23.10;73.80;;;;;;5059794;28;20618;-60
2021/07/15 03:56:08;;;;;;;12.27;11.17;;;23.10;73.80;;;;;;5070684;28;20199;-61
2021/07/15 03:58:41;;;;;;;13.33;11.93;;;23.10;73.70;;;;;;5054761;28;20294;-61
2021/07/15 04:01:17;;;;;;;12.33;11.23;;;23.10;73.70;;;;;;5065988;28;20290;-61
2021/07/15 04:03:53;;;;;;;12.97;11.67;;;23.10;73.60;;;;;;5043655;28;20257;-61
2021/07/15 04:06:23;;;;;;;12.07;10.97;;;23.10;73.60;;;;;;5069910;28;20206;-61
2021/07/15 04:08:57;;;;;;;11.93;10.80;;;23.10;73.60;;;;;;5107302;28;20718;-60
2021/07/15 04:11:34;;;;;;;12.07;10.97;;;23.10;73.50;;;;;;5104421;28;20213;-61
2021/07/15 04:14:29;;;;;;;11.67;10.70;;;23.10;73.50;;;;;;5092648;28;20202;-61
2021/07/15 04:17:09;;;;;;;11.80;10.70;;;23.10;73.50;;;;;;5103679;28;20207;-61
2021/07/15 04:19:51;;;;;;;12.50;11.30;;;23.10;73.60;;;;;;5108592;28;20192;-61
2021/07/15 04:22:21;;;;;;;11.40;10.40;;;23.10;73.60;;;;;;5088525;28;20208;-60
2021/07/15 04:24:53;;;;;;;11.13;10.13;;;23.10;73.70;;;;;;5106254;28;20215;-61
2021/07/15 04:27:58;;;;;;;11.10;10.10;;;23.10;73.70;;;;;;5095231;28;20220;-61
2021/07/15 04:30:28;;;;;;;10.07;9.17;;;23.10;73.70;;;;;;5099873;28;20603;-61
2021/07/15 04:33:11;;;;;;;9.17;8.37;;;23.10;73.70;;;;;;5105571;28;20204;-61
2021/07/15 04:35:46;;;;;;;10.37;9.47;;;23.10;73.70;;;;;;5101921;28;20197;-60
2021/07/15 04:38:17;;;;;;;9.10;8.27;;;23.10;73.60;;;;;;5107894;28;20203;-59
2021/07/15 04:40:50;;;;;;;8.83;8.13;;;23.10;73.40;;;;;;5101957;28;20492;-60
2021/07/15 04:43:24;;;;;;;8.20;7.50;;;23.10;73.40;;;;;;5093596;28;20518;-59
2021/07/15 04:46:05;;;;;;;63.03;23.07;;;23.10;73.40;;;;;;5100166;28;20197;-60
2021/07/15 04:48:43;;;;;;;58.03;23.27;;;23.00;73.70;;;;;;5109909;28;20212;-59
2021/07/15 04:51:16;;;;;;;47.40;18.43;;;23.00;74.40;;;;;;5103505;28;20220;-59
2021/07/15 04:53:48;;;;;;;42.40;17.63;;;23.00;74.40;;;;;;5101913;28;20609;-59
2021/07/15 04:56:18;;;;;;;27.17;13.70;;;23.00;74.20;;;;;;5098576;28;20212;-59
2021/07/15 04:58:51;;;;;;;31.43;13.53;;;23.00;74.10;;;;;;5107796;28;20631;-59
2021/07/15 05:01:21;;;;;;;18.63;10.57;;;23.00;74.00;;;;;;5097787;28;20204;-62
2021/07/15 05:03:53;;;;;;;13.53;8.50;;;23.00;73.70;;;;;;5098741;28;20220;-60
2021/07/15 05:06:22;;;;;;;10.80;7.67;;;23.00;73.80;;;;;;5093887;28;20205;-60
2021/07/15 05:08:49;;;;;;;10.33;7.50;;;23.00;73.80;;;;;;5105595;28;20208;-61
2021/07/15 05:11:18;;;;;;;7.90;6.70;;;22.90;73.90;;;;;;5106444;28;20989;-61
2021/07/15 05:13:50;;;;;;;10.57;7.27;;;22.90;73.80;;;;;;5105199;28;20206;-62
2021/07/15 05:16:24;;;;;;;10.03;7.17;;;22.90;74.00;;;;;;5101190;28;20369;-60
2021/07/15 05:18:54;;;;;;;12.43;8.30;;;23.00;74.00;;;;;;5103577;28;20332;-62
2021/07/15 05:21:25;;;;;;;11.40;7.57;;;22.90;74.00;;;;;;5106827;28;20676;-59
2021/07/15 05:23:56;;;;;;;11.13;7.90;;;22.90;74.20;;;;;;5102306;28;21588;-62
2021/07/15 05:26:30;;;;;;;12.73;8.03;;;22.90;74.30;;;;;;5092341;28;20200;-62
2021/07/15 05:29:02;;;;;;;13.77;7.40;;;22.90;74.40;;;;;;5100723;28;20626;-64
2021/07/15 05:31:31;;;;;;;12.80;7.13;;;22.90;74.70;;;;;;5093579;28;20217;-64
2021/07/15 05:34:01;;;;;;;15.10;7.70;;;23.00;74.00;;;;;;5102803;28;20637;-64
2021/07/15 05:36:32;;;;;;;13.97;7.30;;;23.00;73.90;;;;;;5109577;28;20195;-65
2021/07/15 05:39:00;;;;;;;12.30;6.57;;;23.00;73.60;;;;;;5088405;28;20196;-65
2021/07/15 05:41:30;;;;;;;14.60;7.57;;;23.10;73.30;;;;;;5106549;28;20208;-64
2021/07/15 05:44:00;;;;;;;9.27;6.30;;;23.10;73.00;;;;;;5096367;28;20197;-64
2021/07/15 05:46:32;;;;;;;12.87;6.90;;;23.10;72.90;;;;;;5099212;28;20200;-65
2021/07/15 05:49:01;;;;;;;12.50;7.20;;;23.20;72.60;;;;;;5097601;28;20254;-64
2021/07/15 05:51:32;;;;;;;11.80;7.13;;;23.20;72.50;;;;;;5104575;28;20464;-64
2021/07/15 05:54:01;;;;;;;10.37;6.20;;;23.30;72.30;;;;;;5097744;28;20783;-64
2021/07/15 05:56:32;;;;;;;10.60;5.80;;;23.30;72.30;;;;;;5099558;28;20211;-64
2021/07/15 05:59:03;;;;;;;9.60;6.37;;;23.30;72.10;;;;;;5100636;28;20216;-64
2021/07/15 06:01:36;;;;;;;11.30;5.90;;;23.30;71.90;;;;;;5105114;28;20197;-65
2021/07/15 06:04:07;;;;;;;7.30;5.37;;;23.30;71.80;;;;;;5097248;28;20663;-65
2021/07/15 06:06:35;;;;;;;9.93;5.83;;;23.30;71.70;;;;;;5106109;28;20627;-64
2021/07/15 06:09:05;;;;;;;11.37;6.00;;;23.40;71.60;;;;;;5103191;28;20208;-64
2021/07/15 06:11:35;;;;;;;7.10;5.23;;;23.30;71.50;;;;;;5105057;28;20221;-64
2021/07/15 06:14:10;;;;;;;7.50;5.23;;;23.40;71.50;;;;;;5087706;28;20189;-64
2021/07/15 06:16:41;;;;;;;8.33;4.87;;;23.40;71.40;;;;;;5099989;28;20254;-64
2021/07/15 06:19:24;;;;;;;7.70;5.20;;;23.40;71.30;;;;;;5107070;28;20271;-64
2021/07/15 06:22:05;;;;;;;7.77;4.90;;;23.40;71.20;;;;;;5101964;28;20300;-65
2021/07/15 06:24:33;;;;;;;7.87;4.50;;;23.40;71.20;;;;;;5108712;28;20204;-64
2021/07/15 06:27:05;;;;;;;6.17;4.23;;;23.40;71.00;;;;;;5101461;28;20222;-64
2021/07/15 06:29:37;;;;;;;5.27;4.17;;;23.50;71.10;;;;;;5099908;28;20531;-64
2021/07/15 06:32:08;;;;;;;5.10;4.37;;;23.50;71.00;;;;;;5100150;28;20227;-65
2021/07/15 06:34:40;;;;;;;5.27;4.17;;;23.50;71.00;;;;;;5108467;28;20237;-65
2021/07/15 06:37:13;;;;;;;6.57;4.30;;;23.50;70.90;;;;;;5103344;28;20187;-65
2021/07/15 06:39:45;;;;;;;4.87;3.87;;;23.50;70.80;;;;;;5107583;28;20769;-65
2021/07/15 06:42:16;;;;;;;6.43;4.00;;;23.50;70.70;;;;;;5097484;28;20236;-66
2021/07/15 06:44:47;;;;;;;4.60;3.57;;;23.50;70.70;;;;;;5100767;28;20258;-64
2021/07/15 06:47:19;;;;;;;6.30;4.00;;;23.50;71.30;;;;;;5101717;28;20203;-64
2021/07/15 06:49:47;;;;;;;4.50;3.30;;;23.60;70.70;;;;;;5110171;28;20214;-64
2021/07/15 06:52:20;;;;;;;4.87;3.83;;;23.50;70.60;;;;;;5094918;28;20215;-64
2021/07/15 06:54:54;;;;;;;3.63;3.30;;;23.50;70.50;;;;;;5099332;28;20225;-64
2021/07/15 06:57:33;;;;;;;4.90;3.63;;;23.60;70.50;;;;;;5102286;28;20585;-64
2021/07/15 07:00:11;;;;;;;4.30;3.90;;;23.60;70.50;;;;;;5101544;28;20215;-64
2021/07/15 07:02:42;;;;;;;3.73;3.27;;;23.60;70.50;;;;;;5104351;28;20203;-64
2021/07/15 07:05:19;;;;;;;4.33;3.70;;;23.60;70.50;;;;;;5102656;28;20205;-64
2021/07/15 07:07:50;;;;;;;3.60;3.30;;;23.60;70.40;;;;;;5101254;28;20239;-65
2021/07/15 07:10:25;;;;;;;4.50;3.57;;;23.60;70.30;;;;;;5102263;28;20787;-64
2021/07/15 07:12:59;;;;;;;3.93;3.30;;;23.60;70.30;;;;;;5107748;28;20312;-64
2021/07/15 07:15:29;;;;;;;4.03;3.73;;;23.60;70.30;;;;;;5106492;28;20219;-64
2021/07/15 07:18:02;;;;;;;3.80;3.47;;;23.60;70.40;;;;;;5111301;28;20279;-64
2021/07/15 07:20:33;;;;;;;3.67;3.37;;;23.60;70.30;;;;;;5105733;28;20863;-64
2021/07/15 07:23:12;;;;;;;3.97;3.10;;;23.60;70.30;;;;;;5111380;28;20211;-64
2021/07/15 07:25:44;;;;;;;4.13;3.57;;;23.60;70.40;;;;;;5098829;28;20196;-64
2021/07/15 07:28:13;;;;;;;3.80;3.23;;;23.60;70.40;;;;;;5096446;28;20201;-64
2021/07/15 07:30:48;;;;;;;3.57;3.27;;;23.60;70.50;;;;;;5100327;28;20193;-64
2021/07/15 07:33:17;;;;;;;3.50;3.20;;;23.60;70.40;;;;;;5107340;28;20220;-64
2021/07/15 07:35:47;;;;;;;3.87;3.57;;;23.60;70.30;;;;;;5106917;27;20199;-64
2021/07/15 07:38:16;;;;;;;4.03;3.63;;;23.60;70.40;;;;;;5098975;28;20204;-64
2021/07/15 07:40:47;;;;;;;3.60;3.30;;;23.60;70.30;;;;;;5104121;28;20638;-65
2021/07/15 07:43:16;;;;;;;3.90;3.60;;;23.70;70.30;;;;;;5105871;28;20649;-64
2021/07/15 07:45:46;;;;;;;3.30;3.10;;;23.70;70.40;;;;;;5103387;28;20211;-64
2021/07/15 07:48:21;;;;;;;3.10;2.80;;;23.70;70.30;;;;;;5102051;28;20622;-64
2021/07/15 07:50:53;;;;;;;3.67;3.37;;;23.70;70.30;;;;;;5104625;28;20291;-64
2021/07/15 07:53:28;;;;;;;3.57;3.27;;;23.70;70.40;;;;;;5103539;28;20213;-64
2021/07/15 07:56:00;;;;;;;4.20;3.80;;;23.70;70.30;;;;;;5104553;28;20240;-65
2021/07/15 07:58:31;;;;;;;4.30;3.90;;;23.70;70.30;;;;;;5104004;28;20278;-65
2021/07/15 08:00:59;;;;;;;4.17;3.87;;;23.70;70.30;;;;;;5107528;28;20192;-65
2021/07/15 08:03:30;;;;;;;4.40;4.00;;;23.70;70.30;;;;;;5105029;28;20193;-64
2021/07/15 08:05:59;;;;;;;4.30;4.00;;;23.70;70.30;;;;;;5104926;28;20224;-64
2021/07/15 08:08:30;;;;;;;4.93;4.47;;;23.70;70.30;;;;;;5098138;28;20665;-65
2021/07/15 08:10:58;;;;;;;4.20;3.80;;;23.70;70.20;;;;;;5106724;28;20200;-64
2021/07/15 08:13:25;;;;;;;4.30;4.00;;;23.70;70.10;;;;;;5098103;28;20231;-64
2021/07/15 08:15:53;;;;;;;4.50;4.10;;;23.70;70.10;;;;;;5088629;28;20192;-64
2021/07/15 08:18:23;;;;;;;4.70;4.40;;;23.70;70.10;;;;;;5096792;28;20583;-65
2021/07/15 08:20:54;;;;;;;4.40;4.00;;;23.70;70.20;;;;;;5080046;28;20209;-64
2021/07/15 08:23:22;;;;;;;4.83;4.43;;;23.70;70.10;;;;;;5097515;28;20201;-64
2021/07/15 08:25:52;;;;;;;5.00;4.60;;;23.70;70.10;;;;;;5102411;28;20220;-64
2021/07/15 08:28:21;;;;;;;4.63;4.23;;;23.70;70.00;;;;;;5097766;28;20544;-64
2021/07/15 08:30:51;;;;;;;4.80;4.40;;;23.70;69.90;;;;;;5104203;28;20220;-65
2021/07/15 08:33:22;;;;;;;4.67;4.27;;;23.70;69.90;;;;;;5097642;28;20197;-64
2021/07/15 08:35:52;;;;;;;4.97;4.47;;;23.70;70.40;;;;;;5097912;28;20200;-64
2021/07/15 08:38:24;;;;;;;5.43;4.50;;;23.80;70.20;;;;;;5096487;28;20272;-63
2021/07/15 08:40:54;;;;;;;5.67;4.40;;;23.80;70.20;;;;;;5099847;28;20785;-63
2021/07/15 08:43:24;;;;;;;4.90;4.50;;;23.80;70.30;;;;;;5099332;28;20197;-63
2021/07/15 08:45:59;;;;;;;7.17;4.57;;;23.70;70.70;;;;;;5096258;28;20689;-63
2021/07/15 08:48:44;;;;;;;4.93;4.40;;;23.80;70.20;;;;;;5109127;28;20200;-64
2021/07/15 08:51:14;;;;;;;5.23;4.73;;;23.80;70.10;;;;;;5095536;28;20199;-65
2021/07/15 08:53:48;;;;;;;5.30;4.50;;;23.80;70.20;;;;;;5099517;28;20207;-64
2021/07/15 08:59:12;;;;;;;5.00;4.50;;;23.80;70.10;;;;;;5099318;28;20193;-64
2021/07/15 09:01:52;;;;;;;5.00;4.60;;;23.80;70.10;;;;;;5097433;28;20232;-64
2021/07/15 09:04:25;;;;;;;5.83;4.63;;;23.80;70.10;;;;;;5104641;28;20200;-64
2021/07/15 09:06:56;;;;;;;4.80;4.30;;;23.80;70.10;;;;;;5094585;28;20233;-65
2021/07/15 09:09:27;;;;;;;5.37;4.87;;;23.80;70.00;;;;;;5100587;28;20224;-65
2021/07/15 09:11:58;;;;;;;5.57;4.13;;;23.70;69.90;;;;;;5103701;28;20196;-65
2021/07/15 09:14:41;;;;;;;5.10;4.60;;;23.80;69.80;;;;;;5103220;28;20192;-64
2021/07/15 09:17:11;;;;;;;5.53;4.87;;;23.80;69.90;;;;;;5094021;28;20189;-64
2021/07/15 09:19:43;;;;;;;5.40;4.90;;;23.70;69.80;;;;;;5095699;28;20234;-64
2021/07/15 09:22:16;;;;;;;5.13;4.67;;;23.80;69.80;;;;;;5100487;28;20195;-65
2021/07/15 09:24:46;;;;;;;5.07;4.60;;;23.80;69.80;;;;;;5104934;28;20560;-64
2021/07/15 09:27:28;;;;;;;4.50;4.10;;;23.80;69.70;;;;;;5097481;28;20197;-64
2021/07/15 09:30:13;;;;;;;4.70;4.30;;;23.80;69.70;;;;;;5095960;28;20254;-64
2021/07/15 09:33:26;;;;;;;5.17;4.67;;;23.80;69.60;;;;;;5107183;28;20261;-65
2021/07/15 09:36:27;;;;;;;4.57;4.20;;;23.80;69.70;;;;;;5040623;28;20292;-64
2021/07/15 09:39:02;;;;;;;4.47;4.03;;;23.80;69.60;;;;;;5039694;28;20612;-65
2021/07/15 09:41:32;;;;;;;5.10;4.60;;;23.80;69.50;;;;;;5039958;28;20199;-64
2021/07/15 09:44:00;;;;;;;5.20;4.70;;;23.80;69.60;;;;;;5043997;28;20214;-63
2021/07/15 09:46:36;;;;;;;4.97;4.23;;;23.80;69.60;;;;;;5027515;28;20210;-64
2021/07/15 09:49:34;;;;;;;5.20;4.70;;;23.80;69.30;;;;;;5025179;28;20293;-63
2021/07/15 09:52:21;;;;;;;4.50;4.10;;;23.80;69.40;;;;;;5069480;28;20214;-64
2021/07/15 09:54:50;;;;;;;4.87;4.27;;;23.80;69.40;;;;;;5103703;28;20214;-63
2021/07/15 09:57:30;;;;;;;5.00;4.50;;;23.80;69.20;;;;;;5105282;28;20204;-63
2021/07/15 10:00:01;;;;;;;5.17;4.50;;;23.80;69.30;;;;;;5096530;28;20652;-63
2021/07/15 10:02:33;;;;;;;5.83;4.67;;;23.80;69.30;;;;;;5094600;28;20253;-64
2021/07/15 10:05:11;;;;;;;4.60;4.07;;;23.80;70.10;;;;;;5099975;28;20201;-65
2021/07/15 10:07:39;;;;;;;4.93;4.40;;;23.80;69.30;;;;;;5098950;28;20238;-64
2021/07/15 10:10:21;;;;;;;4.77;4.37;;;23.80;70.10;;;;;;5098006;28;20193;-65
2021/07/15 10:13:14;;;;;;;4.77;4.27;;;23.80;69.30;;;;;;5101498;28;20220;-64
2021/07/15 10:15:46;;;;;;;4.60;4.20;;;23.80;69.40;;;;;;5107259;28;20196;-65
2021/07/15 10:18:33;;;;;;;5.00;4.50;;;23.80;69.40;;;;;;5105366;28;20204;-65
2021/07/15 10:21:09;;;;;;;5.23;4.40;;;23.80;69.40;;;;;;5093366;28;20230;-65
2021/07/15 10:23:50;;;;;;;4.20;3.90;;;23.80;69.40;;;;;;5104324;28;20196;-65
2021/07/15 10:26:31;;;;;;;4.70;4.10;;;23.80;69.30;;;;;;5107469;28;20248;-64
2021/07/15 10:29:02;;;;;;;4.27;3.87;;;23.80;69.30;;;;;;5100092;28;20205;-64
2021/07/15 10:31:34;;;;;;;4.40;4.00;;;23.80;69.10;;;;;;5105941;28;20629;-64
2021/07/15 10:34:04;;;;;;;5.37;4.77;;;23.80;69.10;;;;;;5104221;28;20262;-64
2021/07/15 10:36:36;;;;;;;5.73;4.50;;;23.90;69.40;;;;;;5107092;28;20201;-65
2021/07/15 10:39:11;;;;;;;5.10;4.60;;;23.80;69.20;;;;;;5106320;28;20245;-62
2021/07/15 10:41:46;;;;;;;5.50;4.47;;;23.80;69.10;;;;;;5122635;27;20199;-65
2021/07/15 10:44:34;;;;;;;5.67;5.00;;;23.90;69.40;;;;;;5110820;27;20211;-65
2021/07/15 10:47:06;;;;;;;5.40;4.80;;;23.80;69.30;;;;;;5106601;28;20213;-65
2021/07/15 10:49:37;;;;;;;4.80;4.40;;;23.80;69.20;;;;;;5105733;28;20265;-65
2021/07/15 10:52:09;;;;;;;5.37;4.87;;;23.80;69.10;;;;;;5105040;28;20271;-65
2021/07/15 10:54:51;;;;;;;5.40;4.90;;;23.90;69.10;;;;;;5098303;28;20268;-63
2021/07/15 10:57:23;;;;;;;5.90;4.70;;;23.90;69.10;;;;;;5107913;27;20288;-63
2021/07/15 11:00:25;;;;;;;5.20;4.70;;;23.90;69.20;;;;;;5096872;28;20772;-64
2021/07/15 11:03:13;;;;;;;6.13;5.53;;;23.80;69.20;;;;;;5099870;28;20262;-64
2021/07/15 11:06:05;;;;;;;6.33;5.43;;;23.90;69.40;;;;;;5100132;28;20201;-63
2021/07/15 11:08:49;;;;;;;5.30;4.73;;;23.90;69.10;;;;;;5093055;28;20229;-64
2021/07/15 11:11:43;;;;;;;5.80;5.00;;;23.90;69.10;;;;;;5103724;28;20193;-65
2021/07/15 11:14:49;;;;;;;5.90;5.00;;;23.90;69.20;;;;;;5099075;28;20209;-64
2021/07/15 11:17:32;;;;;;;8.40;5.00;;;23.80;69.10;;;;;;5101896;28;20196;-64
2021/07/15 11:20:31;;;;;;;6.27;5.30;;;23.80;69.20;;;;;;5106990;28;20325;-64
2021/07/15 11:23:22;;;;;;;5.10;4.53;;;23.90;69.30;;;;;;5107415;28;20210;-64
2021/07/15 11:25:57;;;;;;;5.87;4.60;;;23.80;69.20;;;;;;5106501;28;20197;-64
2021/07/15 11:28:27;;;;;;;5.60;5.00;;;23.80;69.00;;;;;;5109555;28;20211;-65
2021/07/15 11:30:59;;;;;;;4.80;4.40;;;23.80;68.90;;;;;;5100398;28;20201;-65
2021/07/15 11:33:36;;;;;;;6.13;4.80;;;23.80;69.00;;;;;;5108075;28;20653;-65
2021/07/15 11:36:26;;;;;;;5.43;4.90;;;23.80;68.90;;;;;;5106918;27;20208;-64
2021/07/15 11:39:06;;;;;;;6.07;4.80;;;23.90;68.90;;;;;;5107979;28;20212;-64
2021/07/15 11:41:42;;;;;;;5.70;5.20;;;23.90;69.10;;;;;;5094041;28;20185;-64
2021/07/15 11:44:14;;;;;;;5.80;5.10;;;23.90;69.10;;;;;;5105843;28;20226;-64
2021/07/15 11:46:46;;;;;;;6.10;5.40;;;23.90;69.00;;;;;;5110081;28;20196;-65
2021/07/15 11:49:26;;;;;;;6.67;5.50;;;23.90;69.10;;;;;;5100790;28;20629;-65
2021/07/15 11:52:03;;;;;;;6.27;5.40;;;23.80;69.10;;;;;;5107636;28;20218;-65
2021/07/15 11:55:20;;;;;;;5.87;4.83;;;23.90;69.10;;;;;;5102209;27;20917;-65
2021/07/15 11:57:51;;;;;;;5.60;4.97;;;23.90;69.10;;;;;;5104264;28;20273;-65
2021/07/15 12:00:28;;;;;;;5.53;5.00;;;23.90;69.00;;;;;;5096958;28;20208;-64
2021/07/15 12:03:15;;;;;;;5.13;4.63;;;23.90;69.10;;;;;;5097160;28;20214;-64
2021/07/15 12:05:51;;;;;;;4.70;4.30;;;23.80;68.80;;;;;;5105405;28;20261;-64
2021/07/15 12:08:19;;;;;;;5.10;4.67;;;23.80;68.80;;;;;;5094026;28;20250;-64
2021/07/15 12:10:53;;;;;;;5.20;4.67;;;23.80;69.00;;;;;;5100618;28;20281;-64
2021/07/15 12:13:23;;;;;;;5.13;4.30;;;23.90;69.10;;;;;;5107919;28;20681;-64
2021/07/15 12:15:55;;;;;;;4.70;4.30;;;23.90;69.10;;;;;;5108607;28;20212;-65
2021/07/15 12:18:25;;;;;;;5.20;4.70;;;23.90;69.10;;;;;;5104321;28;20196;-65
2021/07/15 12:20:57;;;;;;;5.00;4.43;;;23.90;69.00;;;;;;5104485;28;20204;-65
2021/07/15 12:23:34;;;;;;;5.47;4.93;;;23.90;68.80;;;;;;5100428;28;20558;-65
2021/07/15 12:26:07;;;;;;;5.30;4.80;;;23.90;69.00;;;;;;5105258;28;20216;-65
2021/07/15 12:28:50;;;;;;;4.77;4.33;;;23.90;68.70;;;;;;5104054;28;20185;-65
2021/07/15 12:31:21;;;;;;;5.77;4.77;;;23.90;68.60;;;;;;5101623;28;20205;-64
2021/07/15 12:33:53;;;;;;;5.33;4.37;;;23.90;68.70;;;;;;5098489;28;20212;-64
2021/07/15 12:36:38;;;;;;;5.43;4.93;;;23.90;68.90;;;;;;5100118;28;20231;-65
2021/07/15 12:39:13;;;;;;;5.23;4.43;;;23.90;68.80;;;;;;5100685;28;20245;-64
2021/07/15 12:41:46;;;;;;;5.40;4.90;;;23.90;68.80;;;;;;5095980;28;20250;-64
2021/07/15 12:44:24;;;;;;;5.53;5.00;;;23.90;68.80;;;;;;5104232;28;20265;-64
2021/07/15 12:46:58;;;;;;;6.43;4.77;;;23.90;68.80;;;;;;5105614;28;20208;-64
2021/07/15 12:49:37;;;;;;;5.67;4.17;;;23.90;68.80;;;;;;5104969;28;20676;-65
2021/07/15 12:52:09;;;;;;;4.83;4.33;;;23.90;68.80;;;;;;5099669;28;20212;-64
2021/07/15 12:54:48;;;;;;;5.80;4.60;;;23.90;68.70;;;;;;5104745;28;20642;-63
2021/07/15 12:57:16;;;;;;;4.63;4.23;;;23.90;68.80;;;;;;5093407;28;20193;-65
2021/07/15 12:59:59;;;;;;;6.27;5.00;;;23.90;68.70;;;;;;5106536;28;20204;-64
2021/07/15 13:02:34;;;;;;;4.80;4.30;;;23.90;68.90;;;;;;5102082;28;20192;-64
2021/07/15 13:05:20;;;;;;;5.23;4.20;;;23.90;68.70;;;;;;5094811;28;20232;-64
2021/07/15 13:07:50;;;;;;;4.47;4.07;;;23.90;68.80;;;;;;5105789;28;20227;-64
2021/07/15 13:16:11;;;;;;;4.17;3.77;;;23.90;68.70;;;;;;5097396;28;20215;-65
2021/07/15 13:18:44;;;;;;;5.13;4.17;;;23.90;68.70;;;;;;5097715;28;20227;-65
2021/07/15 13:21:27;;;;;;;4.83;4.00;;;23.90;68.70;;;;;;5101990;28;20249;-64
2021/07/15 13:24:03;;;;;;;5.17;4.07;;;23.90;68.80;;;;;;5101476;28;20211;-64
2021/07/15 13:26:55;;;;;;;8.48;4.85;;;23.90;68.90;;;;;;5094402;28;20450;-64
2021/07/15 13:29:36;;;;;;;4.50;4.10;;;24.00;69.10;;;;;;5085309;28;20199;-64
2021/07/15 13:32:38;;;;;;;5.10;4.53;;;24.00;69.60;;;;;;5095012;28;20230;-63
2021/07/15 13:35:22;;;;;;;6.13;5.23;;;24.00;69.70;;;;;;5102083;28;20200;-64
2021/07/15 13:37:54;;;;;;;5.47;4.13;;;24.10;69.80;;;;;;5104935;28;20301;-63
2021/07/15 13:40:27;;;;;;;5.47;4.97;;;24.10;69.70;;;;;;5108047;28;20234;-63